createdAt,value
2022-10-24T00:01:26.853Z,51.50
2022-10-24T00:03:54.458Z,51.30
2022-10-24T00:06:22.284Z,50.70
2022-10-24T00:08:50.283Z,50.30
2022-10-24T00:11:26.772Z,50.20
2022-10-24T00:13:57.616Z,50.40
2022-10-24T00:16:25.807Z,50.60
2022-10-24T00:18:53.900Z,50.70
2022-10-24T00:21:21.588Z,51.00
2022-10-24T00:23:49.064Z,51.40
2022-10-24T00:26:17.116Z,51.60
2022-10-24T00:28:44.740Z,51.80
2022-10-24T00:31:20.083Z,51.90
2022-10-24T00:33:47.848Z,52.10
2022-10-24T00:36:21.790Z,51.90
2022-10-24T00:38:51.488Z,52.10
2022-10-24T00:41:37.782Z,52.20
2022-10-24T00:44:27.102Z,52.40
2022-10-24T00:47:20.359Z,52.70
2022-10-24T00:50:12.984Z,52.70
2022-10-24T00:52:47.340Z,53.00
2022-10-24T00:55:15.717Z,52.70
2022-10-24T00:57:56.700Z,52.90
2022-10-24T01:00:31.749Z,53.00
2022-10-24T01:03:00.119Z,53.00
2022-10-24T01:05:40.770Z,53.00
2022-10-24T01:09:02.627Z,52.50
2022-10-24T01:12:15.615Z,52.40
2022-10-24T01:15:35.841Z,52.40
2022-10-24T01:18:39.622Z,52.10
2022-10-24T01:21:52.708Z,52.20
2022-10-24T01:24:50.872Z,52.60
2022-10-24T01:28:05.356Z,52.40
2022-10-24T01:31:19.803Z,52.70
2022-10-24T01:34:16.632Z,52.80
2022-10-24T01:37:05.157Z,52.90
2022-10-24T01:39:48.216Z,53.20
2022-10-24T01:42:22.312Z,53.30
2022-10-24T01:44:57.430Z,53.30
2022-10-24T01:47:46.243Z,53.50
2022-10-24T01:50:17.887Z,53.60
2022-10-24T01:52:47.593Z,53.70
2022-10-24T01:55:15.410Z,53.90
2022-10-24T01:57:42.941Z,54.60
2022-10-24T02:00:22.690Z,54.90
2022-10-24T02:03:18.861Z,54.90
2022-10-24T02:05:56.522Z,55.30
2022-10-24T02:08:38.949Z,54.90
2022-10-24T02:11:08.986Z,55.10
2022-10-24T02:14:18.775Z,55.00
2022-10-24T02:16:46.692Z,55.00
2022-10-24T02:19:14.423Z,54.90
2022-10-24T02:22:23.507Z,54.60
2022-10-24T02:25:22.122Z,54.60
2022-10-24T02:28:13.085Z,54.50
2022-10-24T02:30:52.437Z,54.60
2022-10-24T02:33:21.658Z,54.50
2022-10-24T02:35:50.227Z,54.30
2022-10-24T02:38:36.400Z,54.10
2022-10-24T02:41:12.188Z,54.20
2022-10-24T02:43:43.868Z,54.40
2022-10-24T02:46:13.368Z,54.90
2022-10-24T02:48:56.112Z,58.40
2022-10-24T02:51:34.231Z,60.30
2022-10-24T02:54:03.080Z,62.10
2022-10-24T02:56:31.352Z,62.80
2022-10-24T02:58:58.692Z,62.00
2022-10-24T03:01:27.196Z,61.20
2022-10-24T03:03:54.551Z,63.40
2022-10-24T03:06:21.824Z,63.10
2022-10-24T03:08:49.090Z,65.00
2022-10-24T03:11:16.843Z,63.30
2022-10-24T03:13:44.164Z,63.20
2022-10-24T03:16:14.004Z,65.50
2022-10-24T03:18:41.751Z,64.40
2022-10-24T03:21:09.404Z,65.20
2022-10-24T03:23:36.738Z,65.60
2022-10-24T03:26:04.184Z,65.90
2022-10-24T03:28:31.453Z,65.10
2022-10-24T03:30:58.774Z,64.20
2022-10-24T03:33:26.141Z,65.90
2022-10-24T03:35:55.217Z,63.10
2022-10-24T03:38:24.057Z,63.70
2022-10-24T03:40:51.749Z,62.80
2022-10-24T03:43:20.338Z,62.30
2022-10-24T03:45:47.740Z,62.70
2022-10-24T03:48:15.037Z,61.10
2022-10-24T03:50:42.367Z,61.60
2022-10-24T03:53:09.988Z,62.20
2022-10-24T03:55:37.364Z,61.40
2022-10-24T03:58:04.801Z,61.10
2022-10-24T04:00:35.085Z,61.70
2022-10-24T04:03:02.443Z,61.20
2022-10-24T04:05:29.734Z,61.00
2022-10-24T04:07:57.057Z,61.10
2022-10-24T04:10:24.321Z,61.10
2022-10-24T04:12:51.586Z,60.30
2022-10-24T04:15:19.191Z,60.00
2022-10-24T04:17:47.264Z,60.00
2022-10-24T04:20:19.418Z,59.20
2022-10-24T04:22:48.032Z,58.90
2022-10-24T04:25:17.132Z,59.60
2022-10-24T04:27:45.561Z,59.00
2022-10-24T04:30:16.609Z,59.20
2022-10-24T04:32:45.367Z,59.20
2022-10-24T04:35:14.158Z,58.70
2022-10-24T04:37:41.544Z,59.40
2022-10-24T04:40:10.285Z,58.90
2022-10-24T04:42:37.575Z,59.10
2022-10-24T04:45:06.479Z,59.40
2022-10-24T04:47:34.637Z,59.90
2022-10-24T04:50:02.165Z,60.50
2022-10-24T04:52:29.464Z,61.30
2022-10-24T04:54:56.856Z,61.50
2022-10-24T04:57:24.113Z,61.80
2022-10-24T04:59:51.368Z,62.40
2022-10-24T05:02:18.865Z,62.10
2022-10-24T05:04:46.165Z,62.30
2022-10-24T05:07:13.459Z,62.80
2022-10-24T05:09:40.824Z,63.00
2022-10-24T05:12:08.337Z,62.90
2022-10-24T05:14:35.675Z,62.90
2022-10-24T05:17:03.116Z,63.50
2022-10-24T05:19:30.562Z,63.20
2022-10-24T05:21:57.920Z,63.10
2022-10-24T05:24:25.726Z,63.20
2022-10-24T05:26:52.980Z,63.10
2022-10-24T05:29:20.232Z,62.50
2022-10-24T05:31:47.573Z,62.40
2022-10-24T05:34:14.889Z,62.00
2022-10-24T05:36:42.259Z,61.60
2022-10-24T05:39:09.602Z,61.60
2022-10-24T05:41:36.979Z,61.30
2022-10-24T05:44:04.512Z,61.40
2022-10-24T05:46:32.760Z,61.80
2022-10-24T05:49:01.782Z,62.00
2022-10-24T05:51:29.060Z,62.20
2022-10-24T05:53:57.171Z,62.30
2022-10-24T05:56:24.960Z,62.30
2022-10-24T05:58:52.276Z,62.40
2022-10-24T06:01:19.592Z,62.30
2022-10-24T06:03:47.011Z,62.70
2022-10-24T06:06:14.317Z,63.30
2022-10-24T06:08:43.947Z,63.90
2022-10-24T06:11:12.848Z,64.80
2022-10-24T06:13:40.997Z,64.90
2022-10-24T06:16:10.578Z,63.80
2022-10-24T06:18:40.472Z,65.30
2022-10-24T06:21:10.587Z,66.30
2022-10-24T06:23:37.912Z,65.80
2022-10-24T06:26:11.972Z,65.70
2022-10-24T06:28:40.260Z,66.70
2022-10-24T06:31:11.053Z,66.60
2022-10-24T06:33:38.449Z,66.90
2022-10-24T06:36:09.470Z,66.80
2022-10-24T06:38:37.558Z,67.30
2022-10-24T06:41:11.339Z,68.10
2022-10-24T06:43:39.727Z,67.40
2022-10-24T06:46:16.313Z,67.50
2022-10-24T06:48:43.811Z,68.00
2022-10-24T06:51:18.773Z,69.50
2022-10-24T06:53:46.832Z,71.40
2022-10-24T06:56:14.660Z,71.90
2022-10-24T06:58:42.248Z,70.80
2022-10-24T07:01:18.132Z,71.50
2022-10-24T07:03:46.621Z,72.30
2022-10-24T07:06:24.755Z,73.40
2022-10-24T07:08:59.808Z,73.50
2022-10-24T07:11:31.537Z,73.70
2022-10-24T07:14:01.612Z,74.30
2022-10-24T07:16:30.255Z,76.30
2022-10-24T07:18:57.645Z,76.80
2022-10-24T07:21:33.356Z,75.40
2022-10-24T07:24:01.352Z,75.60
2022-10-24T07:26:30.375Z,77.30
2022-10-24T07:31:34.564Z,77.60
2022-10-24T07:34:06.702Z,77.50
2022-10-24T07:36:34.004Z,77.50
2022-10-24T07:39:01.896Z,77.70
2022-10-24T07:41:32.978Z,78.30
2022-10-24T07:44:04.412Z,78.10
2022-10-24T07:46:31.977Z,78.40
2022-10-24T07:48:59.356Z,80.00
2022-10-24T07:51:28.556Z,79.80
2022-10-24T07:53:58.769Z,80.10
2022-10-24T07:56:26.857Z,79.50
2022-10-24T07:58:56.080Z,79.20
2022-10-24T08:01:26.826Z,79.50
2022-10-24T08:03:56.168Z,80.70
2022-10-24T08:06:30.995Z,80.20
2022-10-24T08:08:58.629Z,79.00
2022-10-24T08:11:28.996Z,81.30
2022-10-24T08:14:00.461Z,80.40
2022-10-24T08:16:28.113Z,79.80
2022-10-24T08:18:58.225Z,78.60
2022-10-24T08:21:26.807Z,79.00
2022-10-24T08:23:55.874Z,79.30
2022-10-24T08:26:26.278Z,79.10
2022-10-24T08:28:55.481Z,78.30
2022-10-24T08:31:26.365Z,79.70
2022-10-24T08:33:55.886Z,78.10
2022-10-24T08:36:32.356Z,78.20
2022-10-24T08:39:01.461Z,79.00
2022-10-24T08:41:43.719Z,79.20
2022-10-24T08:44:32.755Z,79.70
2022-10-24T08:48:06.848Z,79.20
2022-10-24T08:50:36.748Z,79.50
2022-10-24T08:53:32.016Z,80.40
2022-10-24T08:56:04.121Z,80.00
2022-10-24T08:58:46.542Z,80.30
2022-10-24T09:02:01.998Z,80.00
2022-10-24T09:04:56.157Z,81.00
2022-10-24T09:10:42.729Z,81.00
2022-10-24T09:13:17.178Z,81.60
2022-10-24T09:15:47.603Z,81.00
2022-10-24T09:18:41.135Z,80.90
2022-10-24T09:21:15.672Z,80.80
2022-10-24T09:23:43.730Z,81.10
2022-10-24T09:26:38.323Z,81.40
2022-10-24T09:29:05.726Z,81.80
2022-10-24T09:31:33.129Z,82.50
2022-10-24T09:34:01.196Z,83.10
2022-10-24T09:36:30.705Z,83.40
2022-10-24T09:39:14.224Z,83.50
2022-10-24T09:41:47.407Z,83.40
2022-10-24T09:44:44.045Z,83.90
2022-10-24T09:47:29.393Z,83.70
2022-10-24T09:49:57.161Z,82.70
2022-10-24T09:52:29.559Z,82.30
2022-10-24T09:55:24.215Z,83.70
2022-10-24T09:58:00.182Z,83.30
2022-10-24T10:00:35.256Z,82.90
2022-10-24T10:03:23.930Z,82.80
2022-10-24T10:06:04.889Z,83.50
2022-10-24T10:08:36.573Z,83.10
2022-10-24T10:11:13.757Z,83.80
2022-10-24T10:13:54.877Z,82.60
2022-10-24T10:17:02.798Z,83.80
2022-10-24T10:19:45.861Z,83.70
2022-10-24T10:22:32.169Z,82.80
2022-10-24T10:25:01.030Z,81.40
2022-10-24T10:27:41.048Z,81.50
2022-10-24T10:30:17.259Z,82.20
2022-10-24T10:33:56.381Z,80.70
2022-10-24T10:36:48.380Z,82.00
2022-10-24T10:39:55.561Z,82.10
2022-10-24T10:43:21.332Z,81.00
2022-10-24T10:46:35.445Z,80.90
2022-10-24T10:49:39.981Z,81.00
2022-10-24T10:52:49.392Z,81.00
2022-10-24T10:55:44.414Z,82.10
2022-10-24T10:59:14.318Z,80.80
2022-10-24T11:02:28.558Z,81.20
2022-10-24T11:06:21.106Z,81.80
2022-10-24T11:09:29.630Z,82.40
2022-10-24T11:12:42.928Z,81.00
2022-10-24T11:15:31.176Z,81.40
2022-10-24T11:18:31.630Z,81.60
2022-10-24T11:21:11.128Z,81.20
2022-10-24T11:24:02.614Z,81.20
2022-10-24T11:26:53.815Z,81.10
2022-10-24T11:29:54.552Z,81.20
2022-10-24T11:32:36.885Z,81.30
2022-10-24T11:35:34.661Z,81.80
2022-10-24T11:38:23.101Z,81.60
2022-10-24T11:41:01.008Z,80.70
2022-10-24T11:43:44.238Z,81.00
2022-10-24T11:46:32.931Z,81.00
2022-10-24T11:49:32.999Z,81.00
2022-10-24T11:52:27.089Z,80.80
2022-10-24T11:55:16.510Z,81.10
2022-10-24T11:57:59.458Z,80.60
2022-10-24T12:01:21.025Z,80.90
2022-10-24T12:04:35.442Z,79.60
2022-10-24T12:07:32.984Z,79.30
2022-10-24T12:10:54.554Z,79.20
2022-10-24T12:13:53.035Z,79.70
2022-10-24T12:17:06.345Z,79.20
2022-10-24T12:19:34.197Z,78.60
2022-10-24T12:22:06.152Z,79.00
2022-10-24T12:24:38.993Z,79.10
2022-10-24T12:27:21.480Z,79.60
2022-10-24T12:30:08.938Z,79.60
2022-10-24T12:32:46.068Z,78.80
2022-10-24T12:35:46.625Z,78.60
2022-10-24T12:38:27.700Z,78.20
2022-10-24T12:41:33.092Z,78.70
2022-10-24T12:44:34.197Z,78.70
2022-10-24T12:47:33.752Z,78.40
2022-10-24T12:50:22.696Z,77.70
2022-10-24T12:53:16.248Z,78.90
2022-10-24T12:55:43.268Z,78.60
2022-10-24T12:58:39.238Z,78.70
2022-10-24T13:01:37.603Z,78.90
2022-10-24T13:05:06.504Z,78.60
2022-10-24T13:08:01.239Z,78.60
2022-10-24T13:11:44.222Z,79.00
2022-10-24T13:14:55.836Z,78.90
2022-10-24T13:18:13.918Z,79.10
2022-10-24T13:20:52.057Z,79.10
2022-10-24T13:23:28.352Z,78.80
2022-10-24T13:25:58.717Z,79.00
2022-10-24T13:28:25.752Z,79.60
2022-10-24T13:30:59.069Z,78.80
2022-10-24T13:33:32.421Z,78.60
2022-10-24T13:36:18.143Z,78.40
2022-10-24T13:39:15.890Z,78.10
2022-10-24T13:41:55.773Z,77.60
2022-10-24T13:44:49.269Z,78.00
2022-10-24T13:47:48.784Z,76.50
2022-10-24T13:50:28.854Z,77.30
2022-10-24T13:53:21.013Z,77.40
2022-10-24T13:55:54.348Z,77.90
2022-10-24T13:58:31.599Z,77.80
2022-10-24T14:01:30.331Z,78.00
2022-10-24T14:04:00.552Z,77.80
2022-10-24T14:06:33.729Z,77.60
2022-10-24T14:09:10.698Z,77.50
2022-10-24T14:11:47.990Z,77.30
2022-10-24T14:14:40.129Z,77.30
2022-10-24T14:17:36.417Z,77.50
2022-10-24T14:20:09.755Z,76.60
2022-10-24T14:22:41.514Z,76.00
2022-10-24T14:25:38.605Z,75.60
2022-10-24T14:28:21.608Z,74.90
2022-10-24T14:31:18.461Z,75.30
2022-10-24T14:33:50.484Z,75.60
2022-10-24T14:36:23.105Z,74.60
2022-10-24T14:38:55.294Z,74.20
2022-10-24T14:41:44.201Z,74.10
2022-10-24T14:44:16.605Z,72.70
2022-10-24T14:46:47.803Z,73.00
2022-10-24T14:49:27.176Z,72.90
2022-10-24T14:52:10.769Z,72.50
2022-10-24T14:55:03.219Z,72.40
2022-10-24T14:57:34.384Z,72.20
2022-10-24T15:00:19.779Z,71.60
2022-10-24T15:02:50.969Z,71.80
2022-10-24T15:05:20.749Z,71.80
2022-10-24T15:08:27.840Z,71.40
2022-10-24T15:11:24.554Z,71.30
2022-10-24T15:14:06.190Z,70.70
2022-10-24T15:16:40.721Z,70.50
2022-10-24T15:19:18.107Z,70.10
2022-10-24T15:21:47.000Z,68.30
2022-10-24T15:24:26.541Z,68.20
2022-10-24T15:27:13.011Z,68.30
2022-10-24T15:29:41.130Z,69.00
2022-10-24T15:32:11.397Z,66.90
2022-10-24T15:34:38.676Z,64.80
2022-10-24T15:37:07.712Z,64.90
2022-10-24T15:39:34.997Z,64.80
2022-10-24T15:44:49.720Z,64.10
2022-10-24T15:47:17.078Z,63.90
2022-10-24T15:49:44.448Z,63.10
2022-10-24T15:52:16.631Z,63.50
2022-10-24T15:54:44.329Z,63.20
2022-10-24T15:57:19.024Z,63.30
2022-10-24T15:59:46.364Z,63.10
2022-10-24T16:02:24.500Z,62.60
2022-10-24T16:04:51.856Z,63.50
2022-10-24T16:07:19.692Z,62.80
2022-10-24T16:09:46.957Z,62.80
2022-10-24T16:12:14.367Z,63.90
2022-10-24T16:14:41.640Z,62.70
2022-10-24T16:17:09.032Z,63.10
2022-10-24T16:19:36.296Z,63.10
2022-10-24T16:22:03.738Z,62.70
2022-10-24T16:24:31.012Z,63.80
2022-10-24T16:26:58.375Z,63.40
2022-10-24T16:29:25.704Z,63.10
2022-10-24T16:31:53.149Z,63.20
2022-10-24T16:34:20.521Z,64.30
2022-10-24T16:36:47.780Z,63.90
2022-10-24T16:39:16.408Z,63.60
2022-10-24T16:41:46.334Z,63.70
2022-10-24T16:44:14.729Z,63.60
2022-10-24T16:46:41.996Z,63.70
2022-10-24T16:49:09.260Z,63.90
2022-10-24T16:51:40.480Z,63.70
2022-10-24T16:54:11.497Z,64.10
2022-10-24T16:56:38.817Z,64.50
2022-10-24T16:59:06.080Z,64.40
2022-10-24T17:01:33.495Z,64.70
2022-10-24T17:04:01.808Z,64.80
2022-10-24T17:06:29.129Z,64.70
2022-10-24T17:08:57.185Z,65.20
2022-10-24T17:14:14.288Z,65.50
2022-10-24T17:16:43.749Z,65.60
2022-10-24T17:19:16.221Z,65.70
2022-10-24T17:21:50.977Z,65.80
2022-10-24T17:24:25.684Z,65.50
2022-10-24T17:26:54.225Z,65.60
2022-10-24T17:29:33.584Z,65.30
2022-10-24T17:32:01.306Z,65.60
2022-10-24T17:34:29.556Z,65.80
2022-10-24T17:37:16.144Z,65.90
2022-10-24T17:40:02.893Z,65.60
2022-10-24T17:42:31.530Z,66.00
2022-10-24T17:44:59.083Z,66.20
2022-10-24T17:47:26.742Z,65.80
2022-10-24T17:49:54.019Z,65.80
2022-10-24T17:52:24.925Z,65.80
2022-10-24T17:54:52.510Z,65.30
2022-10-24T17:57:19.859Z,65.80
2022-10-24T17:59:47.117Z,66.10
2022-10-24T18:02:15.233Z,66.90
2022-10-24T18:04:44.809Z,67.00
2022-10-24T18:07:12.252Z,67.80
2022-10-24T18:09:40.121Z,68.20
2022-10-24T18:12:07.723Z,68.70
2022-10-24T18:14:37.511Z,68.50
2022-10-24T18:17:05.092Z,68.50
2022-10-24T18:19:32.468Z,68.80
2022-10-24T18:21:59.732Z,69.00
2022-10-24T18:24:27.011Z,68.80
2022-10-24T18:26:54.276Z,69.10
2022-10-24T18:29:21.582Z,69.40
2022-10-24T18:31:48.883Z,69.40
2022-10-24T18:34:16.169Z,69.60
2022-10-24T18:36:43.427Z,69.60
2022-10-24T18:39:10.787Z,69.60
2022-10-24T18:42:05.518Z,69.90
2022-10-24T18:44:35.293Z,70.10
2022-10-24T18:47:08.422Z,70.30
2022-10-24T18:49:36.647Z,70.10
2022-10-24T18:52:10.110Z,70.20
2022-10-24T18:54:58.584Z,70.50
2022-10-24T18:57:34.450Z,70.90
2022-10-24T19:00:01.955Z,71.00
2022-10-24T19:03:30.619Z,71.30
2022-10-24T19:06:26.136Z,71.60
2022-10-24T19:08:53.725Z,72.10
2022-10-24T19:11:23.190Z,72.20
2022-10-24T19:13:50.698Z,72.60
2022-10-24T19:16:28.870Z,72.60
2022-10-24T19:19:01.058Z,72.90
2022-10-24T19:21:28.627Z,73.40
2022-10-24T19:23:55.915Z,73.50
2022-10-24T19:26:23.449Z,73.30
2022-10-24T19:28:50.750Z,74.30
2022-10-24T19:31:18.015Z,73.90
2022-10-24T19:33:45.280Z,73.70
2022-10-24T19:36:15.568Z,73.80
2022-10-24T19:38:45.636Z,73.80
2022-10-24T19:41:12.968Z,73.70
2022-10-24T19:43:40.309Z,73.90
2022-10-24T19:46:19.293Z,73.50
2022-10-24T19:48:49.678Z,73.70
2022-10-24T19:51:20.093Z,73.80
2022-10-24T19:53:50.367Z,74.20
2022-10-24T19:56:26.256Z,74.80
2022-10-24T19:58:55.877Z,75.10
2022-10-24T20:01:28.032Z,75.40
2022-10-24T20:03:57.042Z,75.70
2022-10-24T20:06:27.825Z,75.70
2022-10-24T20:08:55.087Z,75.90
2022-10-24T20:11:23.747Z,76.20
2022-10-24T20:13:51.018Z,76.10
2022-10-24T20:16:18.537Z,76.30
2022-10-24T20:18:46.722Z,76.40
2022-10-24T20:21:18.272Z,76.70
2022-10-24T20:23:48.456Z,76.80
2022-10-24T20:26:26.760Z,76.50
2022-10-24T20:28:56.029Z,76.60
2022-10-24T20:31:39.591Z,76.60
2022-10-24T20:34:12.051Z,76.70
2022-10-24T20:36:44.658Z,76.60
2022-10-24T20:39:13.611Z,76.50
2022-10-24T20:41:42.211Z,77.30
2022-10-24T20:44:11.184Z,76.80
2022-10-24T20:46:38.523Z,77.30
2022-10-24T20:49:06.152Z,77.00
2022-10-24T20:51:33.403Z,77.60
2022-10-24T20:54:00.925Z,77.50
2022-10-24T20:56:28.552Z,77.50
2022-10-24T20:58:56.604Z,77.30
2022-10-24T21:01:28.707Z,77.30
2022-10-24T21:03:58.179Z,77.40
2022-10-24T21:06:33.323Z,77.20
2022-10-24T21:09:07.065Z,77.30
2022-10-24T21:11:36.154Z,77.30
2022-10-24T21:14:10.967Z,77.40
2022-10-24T21:16:45.186Z,77.60
2022-10-24T21:19:12.537Z,77.00
2022-10-24T21:21:40.573Z,77.40
2022-10-24T21:24:09.408Z,78.00
2022-10-24T21:26:40.046Z,79.80
2022-10-24T21:29:27.944Z,79.90
2022-10-24T21:31:56.322Z,80.70
2022-10-24T21:34:23.838Z,81.30
2022-10-24T21:36:51.176Z,81.10
2022-10-24T21:39:19.062Z,80.90
2022-10-24T21:41:46.533Z,81.70
2022-10-24T21:44:14.514Z,81.60
2022-10-24T21:46:42.248Z,82.10
2022-10-24T21:49:10.411Z,81.50
2022-10-24T21:51:41.112Z,81.60
2022-10-24T21:54:24.271Z,81.30
2022-10-24T21:56:51.861Z,81.60
2022-10-24T21:59:22.121Z,81.00
2022-10-24T22:01:52.058Z,81.00
2022-10-24T22:04:20.453Z,81.30
2022-10-24T22:06:50.695Z,81.50
2022-10-24T22:09:26.152Z,81.70
2022-10-24T22:11:57.611Z,81.80
2022-10-24T22:14:25.337Z,81.50
2022-10-24T22:16:53.332Z,82.00
2022-10-24T22:19:21.050Z,81.80
2022-10-24T22:21:51.354Z,82.00
2022-10-24T22:24:23.797Z,82.00
2022-10-24T22:26:52.753Z,82.60
2022-10-24T22:29:24.054Z,83.20
2022-10-24T22:31:54.147Z,82.90
2022-10-24T22:34:25.845Z,83.00
2022-10-24T22:37:15.787Z,83.50
2022-10-24T22:39:43.513Z,83.40
2022-10-24T22:42:14.733Z,83.10
2022-10-24T22:44:45.627Z,83.30
2022-10-24T22:47:55.162Z,83.40
2022-10-24T22:50:46.387Z,83.60
2022-10-24T22:53:19.658Z,83.60
2022-10-24T22:55:55.303Z,83.10
2022-10-24T22:58:23.312Z,83.00
2022-10-24T23:01:21.136Z,82.70
2022-10-24T23:04:26.277Z,83.00
2022-10-24T23:07:27.666Z,82.80
2022-10-24T23:09:55.547Z,83.00
2022-10-24T23:12:24.459Z,83.00
2022-10-24T23:14:53.763Z,83.10
2022-10-24T23:17:30.936Z,83.60
2022-10-24T23:19:59.289Z,83.10
2022-10-24T23:22:33.308Z,83.20
2022-10-24T23:25:02.321Z,82.90
2022-10-24T23:27:43.273Z,82.80
2022-10-24T23:30:23.355Z,82.80
2022-10-24T23:32:51.964Z,82.60
2022-10-24T23:35:21.839Z,82.60
2022-10-24T23:37:53.744Z,82.50
2022-10-24T23:40:34.697Z,82.70
2022-10-24T23:43:05.036Z,83.10
2022-10-24T23:45:50.349Z,82.90
2022-10-24T23:49:06.773Z,82.70
2022-10-24T23:52:12.755Z,82.90
2022-10-24T23:54:40.832Z,82.80
2022-10-24T23:57:19.681Z,83.30
2022-10-24T23:59:47.392Z,83.00
